Terminal Aerodrome Forecast
Issued by NWS Quad Cities IA IL

Home | Current Version | Previous Version | Text Only | Print | Product List | Glossary On
Versions: 1 2 3 4 5 6 7 8 9 10 11 12 13 14 15 16 17 18 19 20 21 22 23 24 25 26 27 28 29 30 31
000
FTUS43 KDVN 230800 AAA
TAFDBQ
TAF AMD
KDBQ 230848Z 2309/2406 VRB02KT 6SM BR SCT035 OVC150
      TEMPO 2309/2312 3SM BR
     FM231500 19005KT P6SM SCT006 BKN050
     FM231630 20007KT P6SM BKN040=

USA.gov is the U.S. government's official web portal to all federal, state and local government web resources and services.